Alex, Minnesota
Current Conditions -  °F | °C
As of 8:53 PM on Friday 19 Dec 2014 (Local Time) from KAXN Reporting Station
Haze Haze  
Wind Chill: 21°   Ceiling: 600
Heat Index: 30°   Visibility: 6mi
Dew Point: 28°   Wind: 12mph
Humidity: 92%   Direction: 180°S
Pressure: 30.06"   Gusts: NA
Location:  45.8551°N, 95.4333°W
Report Text: KAXN 200253Z AUTO 18010KT 6SM BR OVC006 M01/M02 A3006 RMK AO2 SLP202 60000 T10111022 58006
Loading
Personal Weather Stations






























Interactive Weather Map New forecast layout! Learn more

10-Day Weather Forecast

Advertisements
Track Severe Weather on mobile